sensor_id;sensor_type;location;lat;lon;timestamp;P1;durP1;ratioP1;P2;durP2;ratioP2
65368;SDS011;51970;53.484;49.488;2024-03-08T00:00:08;7.00;;;3.20;;
65368;SDS011;51970;53.484;49.488;2024-03-08T00:02:38;6.18;;;2.25;;
65368;SDS011;51970;53.484;49.488;2024-03-08T00:05:05;6.97;;;2.53;;
65368;SDS011;51970;53.484;49.488;2024-03-08T00:07:37;7.43;;;2.20;;
65368;SDS011;51970;53.484;49.488;2024-03-08T00:10:04;7.78;;;3.88;;
65368;SDS011;51970;53.484;49.488;2024-03-08T00:12:32;5.55;;;2.60;;
65368;SDS011;51970;53.484;49.488;2024-03-08T00:14:58;14.35;;;4.60;;
65368;SDS011;51970;53.484;49.488;2024-03-08T00:17:25;26.05;;;4.93;;
65368;SDS011;51970;53.484;49.488;2024-03-08T00:19:51;10.13;;;3.95;;
65368;SDS011;51970;53.484;49.488;2024-03-08T00:22:17;7.82;;;2.95;;
65368;SDS011;51970;53.484;49.488;2024-03-08T00:24:43;6.10;;;2.92;;
65368;SDS011;51970;53.484;49.488;2024-03-08T00:27:12;7.00;;;2.85;;
65368;SDS011;51970;53.484;49.488;2024-03-08T00:29:39;9.23;;;3.83;;
65368;SDS011;51970;53.484;49.488;2024-03-08T00:32:05;8.00;;;3.08;;
65368;SDS011;51970;53.484;49.488;2024-03-08T00:34:36;6.18;;;2.63;;
65368;SDS011;51970;53.484;49.488;2024-03-08T00:37:02;7.65;;;4.00;;
65368;SDS011;51970;53.484;49.488;2024-03-08T00:39:29;5.03;;;2.35;;
65368;SDS011;51970;53.484;49.488;2024-03-08T00:41:55;7.10;;;2.92;;
65368;SDS011;51970;53.484;49.488;2024-03-08T00:44:21;6.18;;;2.85;;
65368;SDS011;51970;53.484;49.488;2024-03-08T00:46:51;9.10;;;3.75;;
65368;SDS011;51970;53.484;49.488;2024-03-08T00:49:19;8.48;;;3.58;;
65368;SDS011;51970;53.484;49.488;2024-03-08T00:54:11;7.10;;;4.25;;
65368;SDS011;51970;53.484;49.488;2024-03-08T00:59:06;9.38;;;2.08;;
65368;SDS011;51970;53.484;49.488;2024-03-08T01:01:32;4.80;;;2.28;;
65368;SDS011;51970;53.484;49.488;2024-03-08T01:03:59;6.80;;;3.05;;
65368;SDS011;51970;53.484;49.488;2024-03-08T01:08:52;6.22;;;3.10;;
65368;SDS011;51970;53.484;49.488;2024-03-08T01:11:19;3.63;;;1.70;;
65368;SDS011;51970;53.484;49.488;2024-03-08T01:13:45;6.13;;;3.05;;
65368;SDS011;51970;53.484;49.488;2024-03-08T01:16:12;6.40;;;3.33;;
65368;SDS011;51970;53.484;49.488;2024-03-08T01:18:38;6.30;;;3.08;;
65368;SDS011;51970;53.484;49.488;2024-03-08T01:23:31;4.75;;;2.60;;
65368;SDS011;51970;53.484;49.488;2024-03-08T01:28:23;5.78;;;2.25;;
65368;SDS011;51970;53.484;49.488;2024-03-08T01:30:50;10.43;;;3.55;;
65368;SDS011;51970;53.484;49.488;2024-03-08T01:33:24;8.05;;;2.95;;
65368;SDS011;51970;53.484;49.488;2024-03-08T01:35:51;6.60;;;2.90;;
65368;SDS011;51970;53.484;49.488;2024-03-08T01:38:20;6.60;;;3.00;;
65368;SDS011;51970;53.484;49.488;2024-03-08T01:40:47;7.47;;;2.83;;
65368;SDS011;51970;53.484;49.488;2024-03-08T01:43:32;4.97;;;2.72;;
65368;SDS011;51970;53.484;49.488;2024-03-08T01:45:58;6.38;;;2.80;;
65368;SDS011;51970;53.484;49.488;2024-03-08T01:48:26;6.65;;;3.05;;
65368;SDS011;51970;53.484;49.488;2024-03-08T01:50:55;8.68;;;4.00;;
65368;SDS011;51970;53.484;49.488;2024-03-08T01:53:23;7.35;;;4.45;;
65368;SDS011;51970;53.484;49.488;2024-03-08T01:55:51;8.57;;;3.22;;
65368;SDS011;51970;53.484;49.488;2024-03-08T01:58:21;7.15;;;3.85;;
65368;SDS011;51970;53.484;49.488;2024-03-08T02:00:48;5.22;;;2.60;;
65368;SDS011;51970;53.484;49.488;2024-03-08T02:03:18;8.30;;;3.40;;
65368;SDS011;51970;53.484;49.488;2024-03-08T02:05:44;7.50;;;3.20;;
65368;SDS011;51970;53.484;49.488;2024-03-08T02:08:10;7.00;;;2.25;;
65368;SDS011;51970;53.484;49.488;2024-03-08T02:10:40;6.55;;;2.95;;
65368;SDS011;51970;53.484;49.488;2024-03-08T02:13:07;6.40;;;2.95;;
65368;SDS011;51970;53.484;49.488;2024-03-08T02:18:24;5.70;;;2.72;;
65368;SDS011;51970;53.484;49.488;2024-03-08T02:20:52;6.43;;;2.63;;
65368;SDS011;51970;53.484;49.488;2024-03-08T02:23:19;7.07;;;2.45;;
65368;SDS011;51970;53.484;49.488;2024-03-08T02:25:46;9.43;;;3.70;;
65368;SDS011;51970;53.484;49.488;2024-03-08T02:28:13;7.68;;;3.30;;
65368;SDS011;51970;53.484;49.488;2024-03-08T02:30:40;7.03;;;2.72;;
65368;SDS011;51970;53.484;49.488;2024-03-08T02:33:07;8.50;;;3.10;;
65368;SDS011;51970;53.484;49.488;2024-03-08T02:35:35;6.40;;;3.20;;
65368;SDS011;51970;53.484;49.488;2024-03-08T02:38:02;5.00;;;1.88;;
65368;SDS011;51970;53.484;49.488;2024-03-08T02:40:31;8.32;;;3.50;;
65368;SDS011;51970;53.484;49.488;2024-03-08T02:42:57;5.50;;;2.83;;
65368;SDS011;51970;53.484;49.488;2024-03-08T02:45:23;10.10;;;3.45;;
65368;SDS011;51970;53.484;49.488;2024-03-08T02:47:51;6.57;;;2.70;;
65368;SDS011;51970;53.484;49.488;2024-03-08T02:50:17;5.90;;;2.63;;
65368;SDS011;51970;53.484;49.488;2024-03-08T02:52:43;7.90;;;3.33;;
65368;SDS011;51970;53.484;49.488;2024-03-08T02:55:11;8.90;;;3.83;;
65368;SDS011;51970;53.484;49.488;2024-03-08T02:57:40;6.85;;;3.28;;
65368;SDS011;51970;53.484;49.488;2024-03-08T03:00:07;7.20;;;3.22;;
65368;SDS011;51970;53.484;49.488;2024-03-08T03:02:36;7.88;;;3.13;;
65368;SDS011;51970;53.484;49.488;2024-03-08T03:07:32;5.82;;;2.83;;
65368;SDS011;51970;53.484;49.488;2024-03-08T03:10:01;6.85;;;2.75;;
65368;SDS011;51970;53.484;49.488;2024-03-08T03:12:28;6.65;;;3.15;;
65368;SDS011;51970;53.484;49.488;2024-03-08T03:14:55;6.85;;;2.53;;
65368;SDS011;51970;53.484;49.488;2024-03-08T03:17:22;12.50;;;3.17;;
65368;SDS011;51970;53.484;49.488;2024-03-08T03:19:50;7.05;;;3.50;;
65368;SDS011;51970;53.484;49.488;2024-03-08T03:22:19;6.28;;;3.15;;
65368;SDS011;51970;53.484;49.488;2024-03-08T03:24:46;8.23;;;3.53;;
65368;SDS011;51970;53.484;49.488;2024-03-08T03:27:15;13.13;;;3.72;;
65368;SDS011;51970;53.484;49.488;2024-03-08T03:29:41;9.18;;;3.55;;
65368;SDS011;51970;53.484;49.488;2024-03-08T03:32:11;7.95;;;2.92;;
65368;SDS011;51970;53.484;49.488;2024-03-08T03:34:38;6.75;;;2.78;;
65368;SDS011;51970;53.484;49.488;2024-03-08T03:37:05;7.53;;;3.33;;
65368;SDS011;51970;53.484;49.488;2024-03-08T03:39:38;6.93;;;3.17;;
65368;SDS011;51970;53.484;49.488;2024-03-08T03:42:17;10.77;;;3.78;;
65368;SDS011;51970;53.484;49.488;2024-03-08T03:44:47;6.40;;;2.72;;
65368;SDS011;51970;53.484;49.488;2024-03-08T03:47:14;5.82;;;2.75;;
65368;SDS011;51970;53.484;49.488;2024-03-08T03:49:41;5.78;;;2.97;;
65368;SDS011;51970;53.484;49.488;2024-03-08T03:52:08;5.70;;;2.72;;
65368;SDS011;51970;53.484;49.488;2024-03-08T03:54:35;5.72;;;2.88;;
65368;SDS011;51970;53.484;49.488;2024-03-08T03:57:02;5.40;;;2.45;;
65368;SDS011;51970;53.484;49.488;2024-03-08T03:59:28;6.53;;;3.25;;
65368;SDS011;51970;53.484;49.488;2024-03-08T04:01:54;8.23;;;3.42;;
65368;SDS011;51970;53.484;49.488;2024-03-08T04:04:21;6.03;;;2.75;;
65368;SDS011;51970;53.484;49.488;2024-03-08T04:06:49;7.60;;;3.42;;
65368;SDS011;51970;53.484;49.488;2024-03-08T04:09:16;7.50;;;3.15;;
65368;SDS011;51970;53.484;49.488;2024-03-08T04:11:45;8.30;;;4.43;;
65368;SDS011;51970;53.484;49.488;2024-03-08T04:14:11;8.93;;;4.85;;
65368;SDS011;51970;53.484;49.488;2024-03-08T04:16:37;6.13;;;2.55;;
65368;SDS011;51970;53.484;49.488;2024-03-08T04:21:32;5.30;;;2.40;;
65368;SDS011;51970;53.484;49.488;2024-03-08T04:23:59;6.80;;;3.67;;
65368;SDS011;51970;53.484;49.488;2024-03-08T04:26:25;7.13;;;2.72;;
65368;SDS011;51970;53.484;49.488;2024-03-08T04:28:51;7.50;;;3.63;;
65368;SDS011;51970;53.484;49.488;2024-03-08T04:33:43;5.72;;;3.00;;
65368;SDS011;51970;53.484;49.488;2024-03-08T04:36:10;7.13;;;3.25;;
65368;SDS011;51970;53.484;49.488;2024-03-08T04:38:39;8.63;;;3.90;;
65368;SDS011;51970;53.484;49.488;2024-03-08T04:41:06;8.35;;;3.92;;
65368;SDS011;51970;53.484;49.488;2024-03-08T04:43:33;8.52;;;3.75;;
65368;SDS011;51970;53.484;49.488;2024-03-08T04:46:00;10.10;;;4.55;;
65368;SDS011;51970;53.484;49.488;2024-03-08T04:48:29;9.30;;;4.68;;
65368;SDS011;51970;53.484;49.488;2024-03-08T04:50:55;9.48;;;4.57;;
65368;SDS011;51970;53.484;49.488;2024-03-08T04:53:21;7.47;;;4.13;;
65368;SDS011;51970;53.484;49.488;2024-03-08T04:55:48;11.73;;;3.80;;
65368;SDS011;51970;53.484;49.488;2024-03-08T04:58:14;7.70;;;3.85;;
65368;SDS011;51970;53.484;49.488;2024-03-08T05:00:41;9.10;;;4.60;;
65368;SDS011;51970;53.484;49.488;2024-03-08T05:03:07;5.47;;;2.38;;
65368;SDS011;51970;53.484;49.488;2024-03-08T05:05:33;8.73;;;3.03;;
65368;SDS011;51970;53.484;49.488;2024-03-08T05:07:59;9.07;;;3.88;;
65368;SDS011;51970;53.484;49.488;2024-03-08T05:10:26;8.77;;;3.30;;
65368;SDS011;51970;53.484;49.488;2024-03-08T05:12:53;6.40;;;2.80;;
65368;SDS011;51970;53.484;49.488;2024-03-08T05:15:19;6.22;;;3.13;;
65368;SDS011;51970;53.484;49.488;2024-03-08T05:17:46;11.45;;;4.57;;
65368;SDS011;51970;53.484;49.488;2024-03-08T05:20:12;8.68;;;3.65;;
65368;SDS011;51970;53.484;49.488;2024-03-08T05:22:39;12.52;;;4.13;;
65368;SDS011;51970;53.484;49.488;2024-03-08T05:25:06;6.43;;;2.22;;
65368;SDS011;51970;53.484;49.488;2024-03-08T05:27:35;7.30;;;3.70;;
65368;SDS011;51970;53.484;49.488;2024-03-08T05:30:02;5.78;;;2.50;;
65368;SDS011;51970;53.484;49.488;2024-03-08T05:32:29;9.07;;;4.80;;
65368;SDS011;51970;53.484;49.488;2024-03-08T05:34:56;8.30;;;4.20;;
65368;SDS011;51970;53.484;49.488;2024-03-08T05:37:22;7.57;;;3.40;;
65368;SDS011;51970;53.484;49.488;2024-03-08T05:39:48;8.20;;;3.58;;
65368;SDS011;51970;53.484;49.488;2024-03-08T05:42:14;7.70;;;3.88;;
65368;SDS011;51970;53.484;49.488;2024-03-08T05:44:40;6.10;;;3.08;;
65368;SDS011;51970;53.484;49.488;2024-03-08T05:47:07;7.15;;;3.53;;
65368;SDS011;51970;53.484;49.488;2024-03-08T05:49:33;7.22;;;3.38;;
65368;SDS011;51970;53.484;49.488;2024-03-08T05:51:59;7.32;;;3.85;;
65368;SDS011;51970;53.484;49.488;2024-03-08T05:54:25;10.35;;;3.90;;
65368;SDS011;51970;53.484;49.488;2024-03-08T05:56:52;12.00;;;3.55;;
65368;SDS011;51970;53.484;49.488;2024-03-08T05:59:19;9.73;;;6.25;;
65368;SDS011;51970;53.484;49.488;2024-03-08T06:01:46;8.43;;;3.15;;
65368;SDS011;51970;53.484;49.488;2024-03-08T06:04:12;10.73;;;5.05;;
65368;SDS011;51970;53.484;49.488;2024-03-08T06:06:39;8.15;;;3.63;;
65368;SDS011;51970;53.484;49.488;2024-03-08T06:09:05;8.65;;;3.75;;
65368;SDS011;51970;53.484;49.488;2024-03-08T06:11:36;12.75;;;3.33;;
65368;SDS011;51970;53.484;49.488;2024-03-08T06:14:03;10.45;;;4.65;;
65368;SDS011;51970;53.484;49.488;2024-03-08T06:16:29;7.13;;;3.22;;
65368;SDS011;51970;53.484;49.488;2024-03-08T06:18:56;7.65;;;4.15;;
65368;SDS011;51970;53.484;49.488;2024-03-08T06:21:23;9.77;;;4.63;;
65368;SDS011;51970;53.484;49.488;2024-03-08T06:23:55;12.27;;;4.25;;
65368;SDS011;51970;53.484;49.488;2024-03-08T06:26:23;8.05;;;3.58;;
65368;SDS011;51970;53.484;49.488;2024-03-08T06:28:50;7.45;;;3.55;;
65368;SDS011;51970;53.484;49.488;2024-03-08T06:31:16;13.25;;;4.80;;
65368;SDS011;51970;53.484;49.488;2024-03-08T06:33:42;10.30;;;4.50;;
65368;SDS011;51970;53.484;49.488;2024-03-08T06:36:09;9.32;;;4.65;;
65368;SDS011;51970;53.484;49.488;2024-03-08T06:38:37;14.85;;;4.38;;
65368;SDS011;51970;53.484;49.488;2024-03-08T06:41:11;10.32;;;4.55;;
65368;SDS011;51970;53.484;49.488;2024-03-08T06:43:43;10.77;;;4.28;;
65368;SDS011;51970;53.484;49.488;2024-03-08T06:46:11;12.15;;;5.22;;
65368;SDS011;51970;53.484;49.488;2024-03-08T06:48:38;12.07;;;4.30;;
65368;SDS011;51970;53.484;49.488;2024-03-08T06:51:05;9.10;;;3.75;;
65368;SDS011;51970;53.484;49.488;2024-03-08T06:53:31;14.35;;;4.18;;
65368;SDS011;51970;53.484;49.488;2024-03-08T06:55:58;11.60;;;4.75;;
65368;SDS011;51970;53.484;49.488;2024-03-08T06:58:24;11.48;;;4.72;;
65368;SDS011;51970;53.484;49.488;2024-03-08T07:00:50;9.18;;;4.75;;
65368;SDS011;51970;53.484;49.488;2024-03-08T07:03:23;11.75;;;5.35;;
65368;SDS011;51970;53.484;49.488;2024-03-08T07:05:49;9.38;;;4.72;;
65368;SDS011;51970;53.484;49.488;2024-03-08T07:08:16;13.98;;;4.80;;
65368;SDS011;51970;53.484;49.488;2024-03-08T07:10:42;10.93;;;3.60;;
65368;SDS011;51970;53.484;49.488;2024-03-08T07:13:10;12.82;;;5.03;;
65368;SDS011;51970;53.484;49.488;2024-03-08T07:15:37;12.63;;;6.25;;
65368;SDS011;51970;53.484;49.488;2024-03-08T07:18:03;14.10;;;6.00;;
65368;SDS011;51970;53.484;49.488;2024-03-08T07:20:29;10.60;;;4.55;;
65368;SDS011;51970;53.484;49.488;2024-03-08T07:22:55;11.05;;;5.13;;
65368;SDS011;51970;53.484;49.488;2024-03-08T07:25:22;9.90;;;4.70;;
65368;SDS011;51970;53.484;49.488;2024-03-08T07:27:49;11.27;;;4.55;;
65368;SDS011;51970;53.484;49.488;2024-03-08T07:30:19;12.40;;;4.20;;
65368;SDS011;51970;53.484;49.488;2024-03-08T07:33:15;9.70;;;4.72;;
65368;SDS011;51970;53.484;49.488;2024-03-08T07:35:41;20.92;;;5.30;;
65368;SDS011;51970;53.484;49.488;2024-03-08T07:38:09;15.20;;;5.47;;
65368;SDS011;51970;53.484;49.488;2024-03-08T07:40:37;14.60;;;5.97;;
65368;SDS011;51970;53.484;49.488;2024-03-08T07:43:09;11.85;;;5.70;;
65368;SDS011;51970;53.484;49.488;2024-03-08T07:45:37;10.73;;;3.80;;
65368;SDS011;51970;53.484;49.488;2024-03-08T07:48:03;14.45;;;5.70;;
65368;SDS011;51970;53.484;49.488;2024-03-08T07:50:38;12.52;;;4.60;;
65368;SDS011;51970;53.484;49.488;2024-03-08T07:53:06;10.35;;;5.07;;
65368;SDS011;51970;53.484;49.488;2024-03-08T07:55:33;7.30;;;3.72;;
65368;SDS011;51970;53.484;49.488;2024-03-08T07:58:00;10.30;;;4.68;;
65368;SDS011;51970;53.484;49.488;2024-03-08T08:00:28;8.63;;;4.35;;
65368;SDS011;51970;53.484;49.488;2024-03-08T08:02:56;8.20;;;3.40;;
65368;SDS011;51970;53.484;49.488;2024-03-08T08:05:23;10.90;;;3.63;;
65368;SDS011;51970;53.484;49.488;2024-03-08T08:07:49;12.57;;;4.53;;
65368;SDS011;51970;53.484;49.488;2024-03-08T08:10:15;10.73;;;4.70;;
65368;SDS011;51970;53.484;49.488;2024-03-08T08:12:48;9.85;;;4.05;;
65368;SDS011;51970;53.484;49.488;2024-03-08T08:15:15;13.30;;;4.28;;
65368;SDS011;51970;53.484;49.488;2024-03-08T08:17:41;11.90;;;5.55;;
65368;SDS011;51970;53.484;49.488;2024-03-08T08:20:08;10.38;;;4.28;;
65368;SDS011;51970;53.484;49.488;2024-03-08T08:22:40;9.20;;;4.65;;
65368;SDS011;51970;53.484;49.488;2024-03-08T08:25:06;7.90;;;4.40;;
65368;SDS011;51970;53.484;49.488;2024-03-08T08:27:33;8.93;;;4.80;;
65368;SDS011;51970;53.484;49.488;2024-03-08T08:30:02;13.52;;;5.78;;
65368;SDS011;51970;53.484;49.488;2024-03-08T08:32:36;14.77;;;6.43;;
65368;SDS011;51970;53.484;49.488;2024-03-08T08:35:03;12.18;;;5.13;;
65368;SDS011;51970;53.484;49.488;2024-03-08T08:37:33;9.88;;;4.80;;
65368;SDS011;51970;53.484;49.488;2024-03-08T08:40:02;9.52;;;4.45;;
65368;SDS011;51970;53.484;49.488;2024-03-08T08:42:36;8.55;;;3.53;;
65368;SDS011;51970;53.484;49.488;2024-03-08T08:45:03;8.32;;;4.13;;
65368;SDS011;51970;53.484;49.488;2024-03-08T08:47:34;13.43;;;4.13;;
65368;SDS011;51970;53.484;49.488;2024-03-08T08:50:01;7.60;;;4.13;;
65368;SDS011;51970;53.484;49.488;2024-03-08T08:52:27;8.23;;;4.10;;
65368;SDS011;51970;53.484;49.488;2024-03-08T08:54:54;8.23;;;4.55;;
65368;SDS011;51970;53.484;49.488;2024-03-08T08:57:20;9.70;;;4.93;;
65368;SDS011;51970;53.484;49.488;2024-03-08T08:59:46;14.00;;;4.13;;
65368;SDS011;51970;53.484;49.488;2024-03-08T09:02:13;8.45;;;4.55;;
65368;SDS011;51970;53.484;49.488;2024-03-08T09:04:40;9.00;;;4.35;;
65368;SDS011;51970;53.484;49.488;2024-03-08T09:07:06;10.48;;;3.97;;
65368;SDS011;51970;53.484;49.488;2024-03-08T09:09:32;10.77;;;4.72;;
65368;SDS011;51970;53.484;49.488;2024-03-08T09:11:58;10.05;;;5.18;;
65368;SDS011;51970;53.484;49.488;2024-03-08T09:14:24;7.75;;;4.53;;
65368;SDS011;51970;53.484;49.488;2024-03-08T09:16:51;10.43;;;4.30;;
65368;SDS011;51970;53.484;49.488;2024-03-08T09:19:17;7.97;;;3.90;;
65368;SDS011;51970;53.484;49.488;2024-03-08T09:21:47;9.57;;;4.70;;
65368;SDS011;51970;53.484;49.488;2024-03-08T09:24:13;9.65;;;5.22;;
65368;SDS011;51970;53.484;49.488;2024-03-08T09:26:40;9.38;;;3.85;;
65368;SDS011;51970;53.484;49.488;2024-03-08T09:29:07;9.80;;;4.60;;
65368;SDS011;51970;53.484;49.488;2024-03-08T09:31:33;13.63;;;4.78;;
65368;SDS011;51970;53.484;49.488;2024-03-08T09:33:59;10.85;;;5.50;;
65368;SDS011;51970;53.484;49.488;2024-03-08T09:36:26;12.23;;;5.60;;
65368;SDS011;51970;53.484;49.488;2024-03-08T09:38:53;13.13;;;5.45;;
65368;SDS011;51970;53.484;49.488;2024-03-08T09:41:19;32.03;;;5.78;;
65368;SDS011;51970;53.484;49.488;2024-03-08T09:43:45;12.45;;;4.13;;
65368;SDS011;51970;53.484;49.488;2024-03-08T09:46:12;11.63;;;6.07;;
65368;SDS011;51970;53.484;49.488;2024-03-08T09:48:40;10.45;;;5.50;;
65368;SDS011;51970;53.484;49.488;2024-03-08T09:51:07;10.90;;;5.65;;
65368;SDS011;51970;53.484;49.488;2024-03-08T09:53:33;9.70;;;4.78;;
65368;SDS011;51970;53.484;49.488;2024-03-08T09:56:00;12.13;;;4.72;;
65368;SDS011;51970;53.484;49.488;2024-03-08T09:58:29;11.45;;;4.78;;
65368;SDS011;51970;53.484;49.488;2024-03-08T10:01:08;9.82;;;4.80;;
65368;SDS011;51970;53.484;49.488;2024-03-08T10:03:34;14.57;;;5.32;;
65368;SDS011;51970;53.484;49.488;2024-03-08T10:06:01;16.17;;;6.85;;
65368;SDS011;51970;53.484;49.488;2024-03-08T10:08:29;11.20;;;4.90;;
65368;SDS011;51970;53.484;49.488;2024-03-08T10:10:55;11.18;;;5.95;;
65368;SDS011;51970;53.484;49.488;2024-03-08T10:13:25;9.13;;;4.68;;
65368;SDS011;51970;53.484;49.488;2024-03-08T10:15:55;8.73;;;4.45;;
65368;SDS011;51970;53.484;49.488;2024-03-08T10:18:21;14.38;;;5.50;;
65368;SDS011;51970;53.484;49.488;2024-03-08T10:21:09;11.55;;;5.32;;
65368;SDS011;51970;53.484;49.488;2024-03-08T10:23:36;10.00;;;4.13;;
65368;SDS011;51970;53.484;49.488;2024-03-08T10:28:59;9.52;;;6.05;;
65368;SDS011;51970;53.484;49.488;2024-03-08T10:31:26;11.20;;;4.88;;
65368;SDS011;51970;53.484;49.488;2024-03-08T10:36:40;10.60;;;5.40;;
65368;SDS011;51970;53.484;49.488;2024-03-08T10:39:22;11.98;;;5.72;;
65368;SDS011;51970;53.484;49.488;2024-03-08T10:41:56;9.75;;;3.95;;
65368;SDS011;51970;53.484;49.488;2024-03-08T10:47:40;17.35;;;5.15;;
65368;SDS011;51970;53.484;49.488;2024-03-08T10:52:52;13.27;;;5.32;;
65368;SDS011;51970;53.484;49.488;2024-03-08T10:55:19;10.50;;;5.05;;
65368;SDS011;51970;53.484;49.488;2024-03-08T10:57:48;14.02;;;7.15;;
65368;SDS011;51970;53.484;49.488;2024-03-08T11:00:16;10.40;;;4.65;;
65368;SDS011;51970;53.484;49.488;2024-03-08T11:02:45;10.88;;;6.25;;
65368;SDS011;51970;53.484;49.488;2024-03-08T11:05:15;10.73;;;6.05;;
65368;SDS011;51970;53.484;49.488;2024-03-08T11:08:01;10.05;;;5.55;;
65368;SDS011;51970;53.484;49.488;2024-03-08T11:10:29;9.57;;;4.82;;
65368;SDS011;51970;53.484;49.488;2024-03-08T11:12:56;12.95;;;6.40;;
65368;SDS011;51970;53.484;49.488;2024-03-08T11:15:24;11.13;;;5.22;;
65368;SDS011;51970;53.484;49.488;2024-03-08T11:17:50;12.30;;;6.30;;
65368;SDS011;51970;53.484;49.488;2024-03-08T11:20:20;11.90;;;5.78;;
65368;SDS011;51970;53.484;49.488;2024-03-08T11:25:38;10.60;;;5.15;;
65368;SDS011;51970;53.484;49.488;2024-03-08T11:28:08;10.48;;;5.28;;
65368;SDS011;51970;53.484;49.488;2024-03-08T11:30:34;14.32;;;6.15;;
65368;SDS011;51970;53.484;49.488;2024-03-08T11:33:01;11.50;;;5.80;;
65368;SDS011;51970;53.484;49.488;2024-03-08T11:35:29;15.00;;;6.25;;
65368;SDS011;51970;53.484;49.488;2024-03-08T11:37:57;12.02;;;5.50;;
65368;SDS011;51970;53.484;49.488;2024-03-08T11:40:25;10.32;;;5.88;;
65368;SDS011;51970;53.484;49.488;2024-03-08T11:42:52;9.80;;;6.05;;
65368;SDS011;51970;53.484;49.488;2024-03-08T11:45:18;11.25;;;5.57;;
65368;SDS011;51970;53.484;49.488;2024-03-08T11:47:46;11.82;;;5.72;;
65368;SDS011;51970;53.484;49.488;2024-03-08T11:50:13;12.20;;;5.10;;
65368;SDS011;51970;53.484;49.488;2024-03-08T11:52:40;12.57;;;5.82;;
65368;SDS011;51970;53.484;49.488;2024-03-08T11:55:09;11.32;;;6.15;;
65368;SDS011;51970;53.484;49.488;2024-03-08T11:57:38;9.90;;;5.20;;
65368;SDS011;51970;53.484;49.488;2024-03-08T12:00:05;10.45;;;5.72;;
65368;SDS011;51970;53.484;49.488;2024-03-08T12:02:35;11.18;;;6.00;;
65368;SDS011;51970;53.484;49.488;2024-03-08T12:05:03;11.40;;;5.75;;
65368;SDS011;51970;53.484;49.488;2024-03-08T12:07:35;18.48;;;5.93;;
65368;SDS011;51970;53.484;49.488;2024-03-08T12:10:21;12.77;;;6.38;;
65368;SDS011;51970;53.484;49.488;2024-03-08T12:12:48;10.55;;;6.00;;
65368;SDS011;51970;53.484;49.488;2024-03-08T12:15:17;10.07;;;5.07;;
65368;SDS011;51970;53.484;49.488;2024-03-08T12:17:45;10.75;;;5.43;;
65368;SDS011;51970;53.484;49.488;2024-03-08T12:22:56;10.90;;;5.63;;
65368;SDS011;51970;53.484;49.488;2024-03-08T12:25:25;10.85;;;6.57;;
65368;SDS011;51970;53.484;49.488;2024-03-08T12:27:53;8.38;;;4.38;;
65368;SDS011;51970;53.484;49.488;2024-03-08T12:30:25;10.63;;;5.32;;
65368;SDS011;51970;53.484;49.488;2024-03-08T12:32:55;12.60;;;4.60;;
65368;SDS011;51970;53.484;49.488;2024-03-08T12:35:26;11.38;;;4.90;;
65368;SDS011;51970;53.484;49.488;2024-03-08T12:37:54;17.73;;;5.78;;
65368;SDS011;51970;53.484;49.488;2024-03-08T12:40:25;13.32;;;6.18;;
65368;SDS011;51970;53.484;49.488;2024-03-08T12:42:54;9.85;;;4.97;;
65368;SDS011;51970;53.484;49.488;2024-03-08T12:45:22;9.15;;;4.53;;
65368;SDS011;51970;53.484;49.488;2024-03-08T12:47:50;12.15;;;6.72;;
65368;SDS011;51970;53.484;49.488;2024-03-08T12:50:20;11.48;;;5.43;;
65368;SDS011;51970;53.484;49.488;2024-03-08T12:52:52;10.30;;;4.78;;
65368;SDS011;51970;53.484;49.488;2024-03-08T12:55:19;11.15;;;6.07;;
65368;SDS011;51970;53.484;49.488;2024-03-08T12:57:46;11.07;;;5.40;;
65368;SDS011;51970;53.484;49.488;2024-03-08T13:00:14;11.18;;;5.88;;
65368;SDS011;51970;53.484;49.488;2024-03-08T13:02:48;10.65;;;4.97;;
65368;SDS011;51970;53.484;49.488;2024-03-08T13:05:17;11.68;;;5.10;;
65368;SDS011;51970;53.484;49.488;2024-03-08T13:07:43;11.40;;;5.20;;
65368;SDS011;51970;53.484;49.488;2024-03-08T13:10:12;9.68;;;5.05;;
65368;SDS011;51970;53.484;49.488;2024-03-08T13:12:41;10.93;;;5.47;;
65368;SDS011;51970;53.484;49.488;2024-03-08T13:15:08;14.50;;;5.50;;
65368;SDS011;51970;53.484;49.488;2024-03-08T13:17:37;13.15;;;4.95;;
65368;SDS011;51970;53.484;49.488;2024-03-08T13:20:06;11.20;;;6.07;;
65368;SDS011;51970;53.484;49.488;2024-03-08T13:22:33;10.48;;;5.18;;
65368;SDS011;51970;53.484;49.488;2024-03-08T13:24:59;11.68;;;5.78;;
65368;SDS011;51970;53.484;49.488;2024-03-08T13:27:27;11.38;;;5.05;;
65368;SDS011;51970;53.484;49.488;2024-03-08T13:29:53;11.10;;;4.63;;
65368;SDS011;51970;53.484;49.488;2024-03-08T13:32:20;9.40;;;4.55;;
65368;SDS011;51970;53.484;49.488;2024-03-08T13:34:47;12.48;;;5.28;;
65368;SDS011;51970;53.484;49.488;2024-03-08T13:37:16;11.85;;;5.35;;
65368;SDS011;51970;53.484;49.488;2024-03-08T13:39:43;10.52;;;5.35;;
65368;SDS011;51970;53.484;49.488;2024-03-08T13:42:12;7.82;;;4.07;;
65368;SDS011;51970;53.484;49.488;2024-03-08T13:44:43;9.55;;;5.30;;
65368;SDS011;51970;53.484;49.488;2024-03-08T13:47:09;11.02;;;5.53;;
65368;SDS011;51970;53.484;49.488;2024-03-08T13:49:37;12.10;;;4.70;;
65368;SDS011;51970;53.484;49.488;2024-03-08T13:52:03;12.25;;;5.18;;
65368;SDS011;51970;53.484;49.488;2024-03-08T13:54:30;12.10;;;5.30;;
65368;SDS011;51970;53.484;49.488;2024-03-08T13:56:57;12.48;;;5.85;;
65368;SDS011;51970;53.484;49.488;2024-03-08T13:59:24;11.90;;;5.53;;
65368;SDS011;51970;53.484;49.488;2024-03-08T14:01:54;12.32;;;4.75;;
65368;SDS011;51970;53.484;49.488;2024-03-08T14:04:22;13.57;;;5.65;;
65368;SDS011;51970;53.484;49.488;2024-03-08T14:06:49;11.63;;;5.50;;
65368;SDS011;51970;53.484;49.488;2024-03-08T14:09:16;10.60;;;4.57;;
65368;SDS011;51970;53.484;49.488;2024-03-08T14:11:43;11.18;;;6.15;;
65368;SDS011;51970;53.484;49.488;2024-03-08T14:14:12;14.32;;;5.70;;
65368;SDS011;51970;53.484;49.488;2024-03-08T14:16:41;15.85;;;6.80;;
65368;SDS011;51970;53.484;49.488;2024-03-08T14:19:08;11.88;;;5.50;;
65368;SDS011;51970;53.484;49.488;2024-03-08T14:21:35;17.25;;;5.72;;
65368;SDS011;51970;53.484;49.488;2024-03-08T14:24:04;14.30;;;6.97;;
65368;SDS011;51970;53.484;49.488;2024-03-08T14:26:30;10.30;;;5.22;;
65368;SDS011;51970;53.484;49.488;2024-03-08T14:28:56;12.40;;;6.43;;
65368;SDS011;51970;53.484;49.488;2024-03-08T14:31:22;19.48;;;7.20;;
65368;SDS011;51970;53.484;49.488;2024-03-08T14:33:53;14.20;;;7.40;;
65368;SDS011;51970;53.484;49.488;2024-03-08T14:36:20;12.88;;;6.20;;
65368;SDS011;51970;53.484;49.488;2024-03-08T14:38:46;15.38;;;5.25;;
65368;SDS011;51970;53.484;49.488;2024-03-08T14:41:13;17.35;;;6.05;;
65368;SDS011;51970;53.484;49.488;2024-03-08T14:43:42;15.60;;;6.18;;
65368;SDS011;51970;53.484;49.488;2024-03-08T14:46:13;17.20;;;7.72;;
65368;SDS011;51970;53.484;49.488;2024-03-08T14:48:49;12.23;;;6.20;;
65368;SDS011;51970;53.484;49.488;2024-03-08T14:51:19;14.73;;;6.80;;
65368;SDS011;51970;53.484;49.488;2024-03-08T14:53:48;12.77;;;5.68;;
65368;SDS011;51970;53.484;49.488;2024-03-08T14:56:15;9.70;;;4.68;;
65368;SDS011;51970;53.484;49.488;2024-03-08T14:58:42;13.68;;;5.32;;
65368;SDS011;51970;53.484;49.488;2024-03-08T15:01:12;13.00;;;5.97;;
65368;SDS011;51970;53.484;49.488;2024-03-08T15:06:10;15.43;;;6.45;;
65368;SDS011;51970;53.484;49.488;2024-03-08T15:08:38;15.63;;;5.75;;
65368;SDS011;51970;53.484;49.488;2024-03-08T15:11:06;13.73;;;6.85;;
65368;SDS011;51970;53.484;49.488;2024-03-08T15:13:34;11.80;;;6.70;;